Terminal Aerodrome Forecast
Issued by NWS

Home | Current Version | Previous Version | Text Only | Print | Product List | Glossary On
Versions: 1 2 3 4 5 6 7 8 9 10 11 12 13
000
FTUS42 TJSJ 280547
TAFJPS
TAF
TJPS 280547Z 2806/2906 09020G38KT P6SM -SHRA SCT020 BKN050
      TEMPO 2806/2810 VRB30G45KT 3SM +SHRA BKN020 OVC050
     FM281500 14015G25KT P6SM -SHRA VCTS SCT025CB BKN040
     FM282200 07010G15KT P6SM VCSH SCT025 SCT060=

USA.gov is the U.S. government's official web portal to all federal, state and local government web resources and services.